createdAt,value
2017-10-27T07:03:19.548Z,93.10
2017-10-27T07:05:47.044Z,93.20
2017-10-27T07:08:14.532Z,93.40
2017-10-27T07:10:42.004Z,93.40
2017-10-27T07:13:10.300Z,93.70
2017-10-27T07:15:37.783Z,93.70
2017-10-27T07:18:05.281Z,93.70
2017-10-27T07:20:32.776Z,93.50
2017-10-27T07:23:00.315Z,94.00
2017-10-27T07:25:28.580Z,93.10
2017-10-27T07:27:56.048Z,93.10
2017-10-27T07:30:24.310Z,92.60
2017-10-27T07:32:51.885Z,92.60
2017-10-27T07:35:20.160Z,92.50
2017-10-27T07:37:48.407Z,92.50
2017-10-27T07:40:15.929Z,92.50
2017-10-27T07:42:43.412Z,92.50
2017-10-27T07:45:10.915Z,92.40
2017-10-27T07:47:39.172Z,92.60
2017-10-27T07:50:06.664Z,92.60
2017-10-27T07:52:34.159Z,92.70
2017-10-27T07:55:01.632Z,92.60
2017-10-27T07:57:29.240Z,92.30
2017-10-27T07:59:57.481Z,92.30
2017-10-27T08:02:24.978Z,92.30
2017-10-27T08:04:52.453Z,92.10
2017-10-27T08:07:19.949Z,92.20
2017-10-27T08:09:47.424Z,91.70
2017-10-27T08:12:14.992Z,91.80
2017-10-27T08:14:43.245Z,91.70
2017-10-27T08:17:10.724Z,91.70
2017-10-27T08:19:39.007Z,91.30
2017-10-27T08:22:07.257Z,91.10
2017-10-27T08:24:34.840Z,91.00
2017-10-27T08:27:03.083Z,90.90
2017-10-27T08:29:30.573Z,90.90
2017-10-27T08:31:58.816Z,90.70
2017-10-27T08:34:26.299Z,90.60
2017-10-27T08:36:53.784Z,90.60
2017-10-27T08:39:22.024Z,90.30
2017-10-27T08:41:53.268Z,90.10
2017-10-27T08:44:20.752Z,90.00
2017-10-27T08:46:48.352Z,90.10
2017-10-27T08:49:15.831Z,89.90
2017-10-27T08:51:43.301Z,89.20
2017-10-27T08:54:10.824Z,89.10
2017-10-27T08:56:38.380Z,89.40
2017-10-27T08:59:05.880Z,89.20
2017-10-27T09:01:33.358Z,88.70
2017-10-27T09:04:01.640Z,88.90
2017-10-27T09:06:29.879Z,88.60
2017-10-27T09:08:57.390Z,88.50
2017-10-27T09:11:25.648Z,87.90
2017-10-27T09:13:53.900Z,86.90
2017-10-27T09:16:21.387Z,86.80
2017-10-27T09:18:49.635Z,86.40
2017-10-27T09:21:17.212Z,86.30
2017-10-27T09:23:45.476Z,86.30
2017-10-27T09:26:12.953Z,86.30
2017-10-27T09:28:41.203Z,84.30
2017-10-27T09:31:08.681Z,84.30
2017-10-27T09:33:36.959Z,83.80
2017-10-27T09:36:05.208Z,83.90
2017-10-27T09:38:32.703Z,83.20
2017-10-27T09:41:00.943Z,82.60
2017-10-27T09:43:28.451Z,82.60
2017-10-27T09:45:55.947Z,82.50
2017-10-27T09:48:23.489Z,83.40
2017-10-27T09:50:50.992Z,82.50
2017-10-27T09:53:18.466Z,81.80
2017-10-27T09:55:46.723Z,81.60
2017-10-27T09:58:14.991Z,81.80
2017-10-27T10:00:42.463Z,81.60
2017-10-27T10:03:09.964Z,82.40
2017-10-27T10:05:37.462Z,81.90
2017-10-27T10:08:04.951Z,82.70
2017-10-27T10:10:33.217Z,81.10
2017-10-27T10:13:00.704Z,81.10
2017-10-27T10:15:28.947Z,79.90
2017-10-27T10:17:56.436Z,80.50
2017-10-27T10:20:24.683Z,79.40
2017-10-27T10:22:52.175Z,79.40
2017-10-27T10:25:20.445Z,79.90
2017-10-27T10:27:48.708Z,80.20
2017-10-27T10:30:16.961Z,82.00
2017-10-27T10:32:44.484Z,81.40
2017-10-27T10:35:11.984Z,82.30
2017-10-27T10:37:39.455Z,81.90
2017-10-27T10:40:06.954Z,81.50
2017-10-27T10:42:34.428Z,81.20
2017-10-27T10:45:01.904Z,81.50
2017-10-27T10:47:29.397Z,81.40
2017-10-27T10:49:57.639Z,80.30
2017-10-27T10:52:25.134Z,81.00
2017-10-27T10:54:53.386Z,78.30
2017-10-27T10:57:20.876Z,78.30
2017-10-27T10:59:49.124Z,78.90
2017-10-27T11:02:16.604Z,78.90
2017-10-27T11:04:44.149Z,79.10
2017-10-27T11:07:13.156Z,78.00
2017-10-27T11:09:42.367Z,77.20
2017-10-27T11:12:10.611Z,77.10
2017-10-27T11:14:38.996Z,77.40
2017-10-27T11:17:06.502Z,77.40
2017-10-27T11:19:33.976Z,77.30
2017-10-27T11:22:01.477Z,77.60
2017-10-27T11:24:29.799Z,77.90
2017-10-27T11:26:57.284Z,77.90
2017-10-27T11:29:24.755Z,77.00
2017-10-27T11:31:53.015Z,76.40
2017-10-27T11:34:20.499Z,76.40
2017-10-27T11:36:47.976Z,76.00
2017-10-27T11:39:16.253Z,75.20
2017-10-27T11:41:44.491Z,75.10
2017-10-27T11:44:11.993Z,75.10
2017-10-27T11:46:40.243Z,74.80
2017-10-27T11:49:07.730Z,74.80
2017-10-27T11:51:35.215Z,74.70
2017-10-27T11:54:02.711Z,74.80
2017-10-27T11:56:30.184Z,75.00
2017-10-27T11:58:57.656Z,75.10
2017-10-27T12:01:25.964Z,75.90
2017-10-27T12:03:53.450Z,75.90
2017-10-27T12:06:20.950Z,75.70
2017-10-27T12:08:49.179Z,76.70
2017-10-27T12:11:16.715Z,76.70
2017-10-27T12:13:44.208Z,78.10
2017-10-27T12:16:11.721Z,78.40
2017-10-27T12:18:39.232Z,78.30
2017-10-27T12:21:06.765Z,78.90
2017-10-27T12:23:34.279Z,77.90
2017-10-27T12:26:02.539Z,76.40
2017-10-27T12:28:30.792Z,76.50
2017-10-27T12:30:58.296Z,76.50
2017-10-27T12:33:26.573Z,84.00
2017-10-27T12:35:54.112Z,83.90
2017-10-27T12:38:21.592Z,84.40
2017-10-27T12:40:49.841Z,85.00
2017-10-27T12:43:17.315Z,85.00
2017-10-27T12:45:45.576Z,83.00
2017-10-27T12:48:13.043Z,82.90
2017-10-27T12:50:40.564Z,81.90
2017-10-27T12:53:08.039Z,81.00
2017-10-27T12:55:35.516Z,80.00
2017-10-27T12:58:03.780Z,78.90
2017-10-27T13:00:31.261Z,78.10
2017-10-27T13:02:59.510Z,76.00
2017-10-27T13:05:26.985Z,75.90
2017-10-27T13:07:55.996Z,74.80
2017-10-27T13:10:23.468Z,74.80
2017-10-27T13:12:50.952Z,74.10
2017-10-27T13:15:18.439Z,72.50
2017-10-27T13:17:46.184Z,71.40
2017-10-27T13:20:13.676Z,71.20
2017-10-27T13:22:41.952Z,72.40
2017-10-27T13:25:09.459Z,72.40
2017-10-27T13:27:54.621Z,72.70
2017-10-27T13:30:22.872Z,71.00
2017-10-27T13:32:51.163Z,70.40
2017-10-27T13:35:18.656Z,69.60
2017-10-27T13:37:46.141Z,69.20
2017-10-27T13:40:13.618Z,69.00
2017-10-27T13:42:42.798Z,69.90
2017-10-27T13:45:10.280Z,69.80
2017-10-27T13:47:39.341Z,71.00
2017-10-27T13:50:06.819Z,71.00
2017-10-27T13:52:34.308Z,71.70
2017-10-27T13:55:01.805Z,71.90
2017-10-27T13:57:29.280Z,71.50
2017-10-27T13:59:56.772Z,69.60
2017-10-27T14:02:25.015Z,68.40
2017-10-27T14:04:52.497Z,68.40
2017-10-27T14:07:20.736Z,69.20
2017-10-27T14:09:48.236Z,69.10
2017-10-27T14:12:16.483Z,72.10
2017-10-27T14:14:45.484Z,72.50
2017-10-27T14:17:13.755Z,72.60
2017-10-27T14:19:41.229Z,72.70
2017-10-27T14:22:09.543Z,70.90
2017-10-27T14:24:37.036Z,71.30
2017-10-27T14:27:04.527Z,71.50
2017-10-27T14:29:32.771Z,73.30
2017-10-27T14:32:00.245Z,72.60
2017-10-27T14:34:27.740Z,72.80
2017-10-27T14:36:55.993Z,73.20
2017-10-27T14:39:24.253Z,73.80
2017-10-27T14:41:51.763Z,73.20
2017-10-27T14:44:19.268Z,73.90
2017-10-27T14:46:46.745Z,74.50
2017-10-27T14:49:14.231Z,74.70
2017-10-27T14:51:41.744Z,75.20
2017-10-27T14:54:09.216Z,74.90
2017-10-27T14:56:36.723Z,75.10
2017-10-27T14:59:04.212Z,74.90
2017-10-27T15:01:31.741Z,74.60
2017-10-27T15:06:06.792Z,74.00
2017-10-27T15:08:34.313Z,74.70
2017-10-27T15:11:02.563Z,74.40
2017-10-27T15:13:30.066Z,74.10
2017-10-27T15:15:57.540Z,75.10
2017-10-27T15:18:25.046Z,75.00
2017-10-27T15:20:53.311Z,75.80
2017-10-27T15:23:20.803Z,75.60
2017-10-27T15:25:49.068Z,76.30
2017-10-27T15:28:17.316Z,76.50
2017-10-27T15:30:44.828Z,76.20
2017-10-27T15:33:13.074Z,76.10
2017-10-27T15:35:41.320Z,76.70
2017-10-27T15:38:09.579Z,76.20
2017-10-27T15:40:37.822Z,76.50
2017-10-27T15:43:06.169Z,76.40
2017-10-27T15:45:34.459Z,77.30
2017-10-27T15:48:01.952Z,76.90
2017-10-27T15:50:29.812Z,77.00
2017-10-27T15:52:58.092Z,77.90
2017-10-27T15:55:26.707Z,78.10
2017-10-27T15:57:54.180Z,78.50
2017-10-27T16:00:21.676Z,79.50
2017-10-27T16:02:49.992Z,79.50
2017-10-27T16:05:17.484Z,81.00
2017-10-27T16:07:44.964Z,81.00
2017-10-27T16:10:12.526Z,81.80
2017-10-27T16:12:40.808Z,83.00
2017-10-27T16:15:09.040Z,83.40
2017-10-27T16:17:36.528Z,83.40
2017-10-27T16:20:04.005Z,84.00
2017-10-27T16:22:32.269Z,83.90
2017-10-27T16:25:00.529Z,84.50
2017-10-27T16:27:28.011Z,83.80
2017-10-27T16:29:56.286Z,84.20
2017-10-27T16:32:24.563Z,84.20
2017-10-27T16:34:52.815Z,84.40
2017-10-27T16:37:20.291Z,84.30
2017-10-27T16:39:48.552Z,84.30
2017-10-27T16:42:16.434Z,82.10
2017-10-27T16:44:44.696Z,82.90
2017-10-27T16:47:12.168Z,82.40
2017-10-27T16:49:39.646Z,82.90
2017-10-27T16:52:07.928Z,82.90
2017-10-27T16:54:35.401Z,82.90
2017-10-27T16:57:02.892Z,83.00
2017-10-27T16:59:30.404Z,82.90
2017-10-27T17:01:58.655Z,82.40
2017-10-27T17:04:26.920Z,82.90
2017-10-27T17:06:54.430Z,82.80
2017-10-27T17:09:22.414Z,81.80
2017-10-27T17:11:49.910Z,81.70
2017-10-27T17:14:17.400Z,82.40
2017-10-27T17:16:44.946Z,82.20
2017-10-27T17:19:13.204Z,82.50
2017-10-27T17:21:40.778Z,82.30
2017-10-27T17:24:09.068Z,83.10
2017-10-27T17:26:37.331Z,83.30
2017-10-27T17:29:05.574Z,83.50
2017-10-27T17:31:33.059Z,82.60
2017-10-27T17:34:00.533Z,83.40
2017-10-27T17:36:28.837Z,83.00
2017-10-27T17:38:56.327Z,82.80
2017-10-27T17:41:23.827Z,82.90
2017-10-27T17:43:52.063Z,83.50
2017-10-27T17:46:19.566Z,83.50
2017-10-27T17:48:48.560Z,82.80
2017-10-27T17:51:16.815Z,83.20
2017-10-27T18:32:59.319Z,80.30
2017-10-27T18:35:27.564Z,81.00
2017-10-27T18:37:55.073Z,80.90
2017-10-27T18:40:22.975Z,81.30
2017-10-27T18:42:50.500Z,81.70
2017-10-27T18:45:17.980Z,82.50
2017-10-27T18:47:45.502Z,82.70
2017-10-27T18:50:12.993Z,83.20
2017-10-27T18:52:40.463Z,83.50
2017-10-27T18:55:07.951Z,83.90
2017-10-27T18:57:36.199Z,84.30
2017-10-27T19:00:03.749Z,84.30
2017-10-27T19:02:31.238Z,84.40
2017-10-27T19:04:58.741Z,84.50
2017-10-27T19:07:26.232Z,84.60
2017-10-27T19:09:53.704Z,84.70
2017-10-27T19:12:21.185Z,84.80
2017-10-27T19:14:49.486Z,84.80
2017-10-27T19:17:16.976Z,84.70
2017-10-27T19:19:44.451Z,84.70
2017-10-27T19:22:11.960Z,84.40
2017-10-27T19:24:39.443Z,84.40
2017-10-27T19:27:06.926Z,84.00
2017-10-27T19:29:34.413Z,83.70
2017-10-27T19:32:02.651Z,84.40
2017-10-27T19:34:30.148Z,83.80
2017-10-27T19:36:58.388Z,83.50
2017-10-27T19:39:25.900Z,83.30
2017-10-27T19:41:53.392Z,83.40
2017-10-27T19:44:20.868Z,83.70
2017-10-27T19:46:48.363Z,82.60
2017-10-27T19:49:16.612Z,82.10
2017-10-27T19:51:44.125Z,82.10
2017-10-27T19:54:11.598Z,82.10
2017-10-27T19:56:39.108Z,82.10
2017-10-27T19:59:07.344Z,82.20
2017-10-27T20:01:34.853Z,82.20
2017-10-27T20:04:03.090Z,82.30
2017-10-27T20:06:30.613Z,82.20
2017-10-27T20:08:58.109Z,82.20
2017-10-27T20:11:25.587Z,82.40
2017-10-27T20:13:53.082Z,82.50
2017-10-27T20:16:20.588Z,82.70
2017-10-27T20:18:48.084Z,82.50
2017-10-27T20:21:16.352Z,82.70
2017-10-27T20:23:44.625Z,83.00
2017-10-27T20:26:12.873Z,83.90
2017-10-27T20:28:40.376Z,83.20
2017-10-27T20:31:07.919Z,83.30
2017-10-27T20:33:36.171Z,83.70
2017-10-27T20:36:03.650Z,83.60
2017-10-27T20:38:31.924Z,83.80
2017-10-27T20:41:00.169Z,83.70
2017-10-27T20:43:27.635Z,83.70
2017-10-27T20:45:55.119Z,83.80
2017-10-27T20:48:23.384Z,83.70
2017-10-27T20:50:50.870Z,83.70
2017-10-27T20:53:19.115Z,84.00
2017-10-27T20:55:46.600Z,84.00
2017-10-27T20:58:14.839Z,83.80
2017-10-27T21:00:42.336Z,83.70
2017-10-27T21:03:10.594Z,83.80
2017-10-27T21:05:38.066Z,83.80
2017-10-27T21:08:06.319Z,84.20
2017-10-27T21:10:34.560Z,84.10
2017-10-27T21:13:02.050Z,84.20
2017-10-27T21:15:29.531Z,84.30
2017-10-27T21:17:57.789Z,84.70
2017-10-27T21:20:25.272Z,84.70
2017-10-27T21:22:53.532Z,84.90
2017-10-27T21:25:21.012Z,84.80
2017-10-27T21:27:49.247Z,84.80
2017-10-27T21:30:16.747Z,84.70
2017-10-27T21:32:44.984Z,85.10
2017-10-27T21:35:12.480Z,85.10
2017-10-27T21:37:40.035Z,85.40
2017-10-27T21:40:08.328Z,85.70
2017-10-27T21:42:35.804Z,85.60
2017-10-27T21:45:03.305Z,85.60
2017-10-27T21:47:30.880Z,85.80
2017-10-27T21:49:59.142Z,86.00
2017-10-27T21:52:26.633Z,86.00
2017-10-27T21:54:54.888Z,86.70
2017-10-27T21:57:23.152Z,86.50
2017-10-27T21:59:50.641Z,86.50
2017-10-27T22:02:18.892Z,87.00
2017-10-27T22:04:46.361Z,87.00
2017-10-27T22:07:14.621Z,87.40
2017-10-27T22:09:42.881Z,87.10
2017-10-27T22:12:10.355Z,87.10
2017-10-27T22:14:37.847Z,87.10
2017-10-27T22:17:05.321Z,87.10
2017-10-27T22:19:32.812Z,87.50
2017-10-27T22:22:00.293Z,87.70
2017-10-27T22:24:27.796Z,88.00
2017-10-27T22:26:55.279Z,88.30
2017-10-27T22:29:22.785Z,88.40
2017-10-27T22:31:51.028Z,88.40
2017-10-27T22:34:18.504Z,88.30
2017-10-27T22:36:45.987Z,88.30
2017-10-27T22:39:14.220Z,88.60
2017-10-27T22:41:41.809Z,88.60
2017-10-27T22:44:10.059Z,88.70
2017-10-27T22:46:37.552Z,88.70
2017-10-27T22:49:05.793Z,89.00
2017-10-27T22:51:33.282Z,88.80
2017-10-27T22:54:01.550Z,89.10
2017-10-27T22:56:29.792Z,89.10
2017-10-27T22:58:57.284Z,89.10
2017-10-27T23:01:25.528Z,89.60
2017-10-27T23:03:53.024Z,89.60
2017-10-27T23:06:21.269Z,89.80
2017-10-27T23:08:48.755Z,89.80
2017-10-27T23:11:16.998Z,90.20
2017-10-27T23:13:44.526Z,89.90
2017-10-27T23:16:12.028Z,90.00
2017-10-27T23:18:39.511Z,90.00
2017-10-27T23:21:07.768Z,90.20
2017-10-27T23:23:35.237Z,90.10
2017-10-27T23:26:02.736Z,90.30
2017-10-27T23:28:30.221Z,90.70
2017-10-27T23:30:57.716Z,90.30
2017-10-27T23:33:25.976Z,90.70
2017-10-27T23:35:53.448Z,90.80
2017-10-27T23:38:21.712Z,90.50
2017-10-27T23:40:49.203Z,90.40
2017-10-27T23:43:17.461Z,90.30
2017-10-27T23:45:45.708Z,90.40
2017-10-27T23:48:13.188Z,90.30
2017-10-27T23:50:42.183Z,90.30
2017-10-27T23:53:10.445Z,90.30
2017-10-27T23:55:37.928Z,90.30
2017-10-27T23:58:06.176Z,90.20
